sensor_id;sensor_type;location;lat;lon;timestamp;P1;durP1;ratioP1;P2;durP2;ratioP2
15712;SDS011;7957;51.608;6.916;2023-04-15T00:01:49;6.53;;;5.63;;
15712;SDS011;7957;51.608;6.916;2023-04-15T00:04:16;6.60;;;5.90;;
15712;SDS011;7957;51.608;6.916;2023-04-15T00:06:48;6.83;;;5.77;;
15712;SDS011;7957;51.608;6.916;2023-04-15T00:09:18;7.67;;;5.97;;
15712;SDS011;7957;51.608;6.916;2023-04-15T00:11:45;7.10;;;6.20;;
15712;SDS011;7957;51.608;6.916;2023-04-15T00:14:13;6.07;;;5.47;;
15712;SDS011;7957;51.608;6.916;2023-04-15T00:16:39;7.70;;;5.77;;
15712;SDS011;7957;51.608;6.916;2023-04-15T00:19:06;6.43;;;5.77;;
15712;SDS011;7957;51.608;6.916;2023-04-15T00:21:33;6.83;;;6.13;;
15712;SDS011;7957;51.608;6.916;2023-04-15T00:24:01;6.47;;;5.90;;
15712;SDS011;7957;51.608;6.916;2023-04-15T00:26:29;6.53;;;5.93;;
15712;SDS011;7957;51.608;6.916;2023-04-15T00:28:57;6.80;;;6.20;;
15712;SDS011;7957;51.608;6.916;2023-04-15T00:31:24;6.33;;;5.83;;
15712;SDS011;7957;51.608;6.916;2023-04-15T00:33:51;6.40;;;5.87;;
15712;SDS011;7957;51.608;6.916;2023-04-15T00:36:18;6.57;;;5.97;;
15712;SDS011;7957;51.608;6.916;2023-04-15T00:38:45;6.30;;;5.73;;
15712;SDS011;7957;51.608;6.916;2023-04-15T00:41:12;6.47;;;5.83;;
15712;SDS011;7957;51.608;6.916;2023-04-15T00:43:41;6.30;;;5.80;;
15712;SDS011;7957;51.608;6.916;2023-04-15T00:46:08;7.63;;;6.23;;
15712;SDS011;7957;51.608;6.916;2023-04-15T00:48:38;6.40;;;5.80;;
15712;SDS011;7957;51.608;6.916;2023-04-15T00:51:06;6.97;;;6.27;;
15712;SDS011;7957;51.608;6.916;2023-04-15T00:53:33;6.37;;;5.77;;
15712;SDS011;7957;51.608;6.916;2023-04-15T00:56:00;6.57;;;5.90;;
15712;SDS011;7957;51.608;6.916;2023-04-15T00:58:27;6.33;;;5.80;;
15712;SDS011;7957;51.608;6.916;2023-04-15T01:00:56;6.70;;;6.07;;
15712;SDS011;7957;51.608;6.916;2023-04-15T01:03:23;7.27;;;6.47;;
15712;SDS011;7957;51.608;6.916;2023-04-15T01:05:50;6.60;;;5.93;;
15712;SDS011;7957;51.608;6.916;2023-04-15T01:08:22;8.57;;;6.60;;
15712;SDS011;7957;51.608;6.916;2023-04-15T01:10:51;6.20;;;5.70;;
15712;SDS011;7957;51.608;6.916;2023-04-15T01:13:19;7.50;;;6.23;;
15712;SDS011;7957;51.608;6.916;2023-04-15T01:15:46;8.20;;;6.50;;
15712;SDS011;7957;51.608;6.916;2023-04-15T01:18:14;8.73;;;6.90;;
15712;SDS011;7957;51.608;6.916;2023-04-15T01:20:41;6.53;;;6.03;;
15712;SDS011;7957;51.608;6.916;2023-04-15T01:23:08;7.23;;;6.60;;
15712;SDS011;7957;51.608;6.916;2023-04-15T01:25:37;7.47;;;6.50;;
15712;SDS011;7957;51.608;6.916;2023-04-15T01:28:06;7.37;;;6.67;;
15712;SDS011;7957;51.608;6.916;2023-04-15T01:30:33;6.90;;;6.20;;
15712;SDS011;7957;51.608;6.916;2023-04-15T01:33:00;7.47;;;6.40;;
15712;SDS011;7957;51.608;6.916;2023-04-15T01:35:27;7.57;;;6.73;;
15712;SDS011;7957;51.608;6.916;2023-04-15T01:37:55;6.93;;;6.33;;
15712;SDS011;7957;51.608;6.916;2023-04-15T01:40:29;7.00;;;6.30;;
15712;SDS011;7957;51.608;6.916;2023-04-15T01:42:58;7.87;;;7.07;;
15712;SDS011;7957;51.608;6.916;2023-04-15T01:45:25;7.97;;;6.90;;
15712;SDS011;7957;51.608;6.916;2023-04-15T01:47:52;7.00;;;6.40;;
15712;SDS011;7957;51.608;6.916;2023-04-15T01:50:19;7.60;;;6.90;;
15712;SDS011;7957;51.608;6.916;2023-04-15T01:52:46;8.10;;;6.97;;
15712;SDS011;7957;51.608;6.916;2023-04-15T01:55:13;7.50;;;6.90;;
15712;SDS011;7957;51.608;6.916;2023-04-15T01:57:40;8.37;;;7.10;;
15712;SDS011;7957;51.608;6.916;2023-04-15T02:00:10;7.80;;;7.10;;
15712;SDS011;7957;51.608;6.916;2023-04-15T02:02:37;8.43;;;7.17;;
15712;SDS011;7957;51.608;6.916;2023-04-15T02:05:04;8.20;;;7.43;;
15712;SDS011;7957;51.608;6.916;2023-04-15T02:07:31;8.30;;;7.03;;
15712;SDS011;7957;51.608;6.916;2023-04-15T02:09:59;7.77;;;6.97;;
15712;SDS011;7957;51.608;6.916;2023-04-15T02:12:25;7.50;;;6.83;;
15712;SDS011;7957;51.608;6.916;2023-04-15T02:14:52;8.00;;;7.20;;
15712;SDS011;7957;51.608;6.916;2023-04-15T02:17:21;8.27;;;7.50;;
15712;SDS011;7957;51.608;6.916;2023-04-15T02:19:48;8.97;;;7.80;;
15712;SDS011;7957;51.608;6.916;2023-04-15T02:22:15;7.97;;;7.10;;
15712;SDS011;7957;51.608;6.916;2023-04-15T02:24:42;8.57;;;7.40;;
15712;SDS011;7957;51.608;6.916;2023-04-15T02:27:10;7.70;;;7.00;;
15712;SDS011;7957;51.608;6.916;2023-04-15T02:29:40;8.03;;;7.23;;
15712;SDS011;7957;51.608;6.916;2023-04-15T02:32:08;8.47;;;7.77;;
15712;SDS011;7957;51.608;6.916;2023-04-15T02:34:37;9.03;;;7.27;;
15712;SDS011;7957;51.608;6.916;2023-04-15T02:37:06;9.17;;;7.93;;
15712;SDS011;7957;51.608;6.916;2023-04-15T02:39:33;8.60;;;7.80;;
15712;SDS011;7957;51.608;6.916;2023-04-15T02:42:00;7.83;;;7.13;;
15712;SDS011;7957;51.608;6.916;2023-04-15T02:44:28;9.37;;;8.27;;
15712;SDS011;7957;51.608;6.916;2023-04-15T02:46:56;8.20;;;7.40;;
15712;SDS011;7957;51.608;6.916;2023-04-15T02:49:23;8.80;;;7.90;;
15712;SDS011;7957;51.608;6.916;2023-04-15T02:51:55;8.90;;;8.03;;
15712;SDS011;7957;51.608;6.916;2023-04-15T02:54:24;8.53;;;7.57;;
15712;SDS011;7957;51.608;6.916;2023-04-15T02:56:52;8.97;;;8.13;;
15712;SDS011;7957;51.608;6.916;2023-04-15T02:59:20;8.77;;;8.00;;
15712;SDS011;7957;51.608;6.916;2023-04-15T03:01:47;9.43;;;8.53;;
15712;SDS011;7957;51.608;6.916;2023-04-15T03:04:14;9.17;;;7.63;;
15712;SDS011;7957;51.608;6.916;2023-04-15T03:06:41;8.93;;;8.03;;
15712;SDS011;7957;51.608;6.916;2023-04-15T03:09:10;8.93;;;8.03;;
15712;SDS011;7957;51.608;6.916;2023-04-15T03:11:37;8.90;;;8.00;;
15712;SDS011;7957;51.608;6.916;2023-04-15T03:14:06;9.20;;;8.40;;
15712;SDS011;7957;51.608;6.916;2023-04-15T03:16:32;8.20;;;7.40;;
15712;SDS011;7957;51.608;6.916;2023-04-15T03:19:00;9.27;;;8.27;;
15712;SDS011;7957;51.608;6.916;2023-04-15T03:21:26;9.37;;;7.73;;
15712;SDS011;7957;51.608;6.916;2023-04-15T03:23:53;9.17;;;8.27;;
15712;SDS011;7957;51.608;6.916;2023-04-15T03:26:26;9.00;;;8.20;;
15712;SDS011;7957;51.608;6.916;2023-04-15T03:28:54;9.27;;;8.37;;
15712;SDS011;7957;51.608;6.916;2023-04-15T03:31:21;8.90;;;7.80;;
15712;SDS011;7957;51.608;6.916;2023-04-15T03:33:48;9.33;;;8.40;;
15712;SDS011;7957;51.608;6.916;2023-04-15T03:36:15;8.73;;;7.93;;
15712;SDS011;7957;51.608;6.916;2023-04-15T03:38:42;9.17;;;8.27;;
15712;SDS011;7957;51.608;6.916;2023-04-15T03:41:09;9.53;;;8.70;;
15712;SDS011;7957;51.608;6.916;2023-04-15T03:43:38;11.57;;;8.93;;
15712;SDS011;7957;51.608;6.916;2023-04-15T03:46:05;9.60;;;8.63;;
15712;SDS011;7957;51.608;6.916;2023-04-15T03:48:32;10.27;;;8.90;;
15712;SDS011;7957;51.608;6.916;2023-04-15T03:50:59;9.30;;;8.37;;
15712;SDS011;7957;51.608;6.916;2023-04-15T03:53:26;10.70;;;8.80;;
15712;SDS011;7957;51.608;6.916;2023-04-15T03:55:53;9.43;;;8.57;;
15712;SDS011;7957;51.608;6.916;2023-04-15T03:58:20;9.53;;;8.63;;
15712;SDS011;7957;51.608;6.916;2023-04-15T04:00:48;10.20;;;9.30;;
15712;SDS011;7957;51.608;6.916;2023-04-15T04:03:15;9.33;;;8.43;;
15712;SDS011;7957;51.608;6.916;2023-04-15T04:05:42;10.83;;;9.33;;
15712;SDS011;7957;51.608;6.916;2023-04-15T04:08:09;10.23;;;9.23;;
15712;SDS011;7957;51.608;6.916;2023-04-15T04:10:37;9.47;;;8.63;;
15712;SDS011;7957;51.608;6.916;2023-04-15T04:13:04;9.80;;;8.80;;
15712;SDS011;7957;51.608;6.916;2023-04-15T04:15:31;9.57;;;8.63;;
15712;SDS011;7957;51.608;6.916;2023-04-15T04:18:00;9.97;;;8.97;;
15712;SDS011;7957;51.608;6.916;2023-04-15T04:20:27;10.70;;;9.70;;
15712;SDS011;7957;51.608;6.916;2023-04-15T04:22:56;9.63;;;8.83;;
15712;SDS011;7957;51.608;6.916;2023-04-15T04:25:22;10.60;;;9.60;;
15712;SDS011;7957;51.608;6.916;2023-04-15T04:27:49;10.07;;;9.17;;
15712;SDS011;7957;51.608;6.916;2023-04-15T04:30:17;10.93;;;9.90;;
15712;SDS011;7957;51.608;6.916;2023-04-15T04:32:44;9.83;;;8.93;;
15712;SDS011;7957;51.608;6.916;2023-04-15T04:35:12;11.00;;;9.90;;
15712;SDS011;7957;51.608;6.916;2023-04-15T04:37:39;11.03;;;10.03;;
15712;SDS011;7957;51.608;6.916;2023-04-15T04:40:07;10.27;;;9.27;;
15712;SDS011;7957;51.608;6.916;2023-04-15T04:42:34;10.40;;;9.40;;
15712;SDS011;7957;51.608;6.916;2023-04-15T04:45:01;10.13;;;9.03;;
15712;SDS011;7957;51.608;6.916;2023-04-15T04:47:29;11.00;;;9.90;;
15712;SDS011;7957;51.608;6.916;2023-04-15T04:49:56;10.83;;;9.60;;
15712;SDS011;7957;51.608;6.916;2023-04-15T04:52:24;10.57;;;9.53;;
15712;SDS011;7957;51.608;6.916;2023-04-15T04:54:52;10.30;;;9.40;;
15712;SDS011;7957;51.608;6.916;2023-04-15T04:57:18;12.27;;;10.10;;
15712;SDS011;7957;51.608;6.916;2023-04-15T04:59:46;10.47;;;9.57;;
15712;SDS011;7957;51.608;6.916;2023-04-15T05:02:13;10.23;;;9.33;;
15712;SDS011;7957;51.608;6.916;2023-04-15T05:04:40;10.57;;;9.47;;
15712;SDS011;7957;51.608;6.916;2023-04-15T05:07:07;10.40;;;9.37;;
15712;SDS011;7957;51.608;6.916;2023-04-15T05:09:36;11.17;;;10.07;;
15712;SDS011;7957;51.608;6.916;2023-04-15T05:12:03;11.63;;;10.53;;
15712;SDS011;7957;51.608;6.916;2023-04-15T05:14:30;10.57;;;9.67;;
15712;SDS011;7957;51.608;6.916;2023-04-15T05:16:57;10.77;;;9.67;;
15712;SDS011;7957;51.608;6.916;2023-04-15T05:19:24;11.40;;;10.33;;
15712;SDS011;7957;51.608;6.916;2023-04-15T05:21:51;11.63;;;10.53;;
15712;SDS011;7957;51.608;6.916;2023-04-15T05:24:19;10.67;;;9.70;;
15712;SDS011;7957;51.608;6.916;2023-04-15T05:26:48;11.97;;;10.77;;
15712;SDS011;7957;51.608;6.916;2023-04-15T05:29:16;11.90;;;10.73;;
15712;SDS011;7957;51.608;6.916;2023-04-15T05:31:42;11.97;;;10.87;;
15712;SDS011;7957;51.608;6.916;2023-04-15T05:34:10;11.80;;;10.70;;
15712;SDS011;7957;51.608;6.916;2023-04-15T05:36:37;12.13;;;10.83;;
15712;SDS011;7957;51.608;6.916;2023-04-15T05:39:04;11.27;;;10.17;;
15712;SDS011;7957;51.608;6.916;2023-04-15T05:41:31;12.20;;;11.00;;
15712;SDS011;7957;51.608;6.916;2023-04-15T05:44:00;12.20;;;11.13;;
15712;SDS011;7957;51.608;6.916;2023-04-15T05:46:26;12.20;;;11.10;;
15712;SDS011;7957;51.608;6.916;2023-04-15T05:48:54;11.87;;;10.87;;
15712;SDS011;7957;51.608;6.916;2023-04-15T05:51:21;12.47;;;11.37;;
15712;SDS011;7957;51.608;6.916;2023-04-15T05:53:48;12.53;;;11.43;;
15712;SDS011;7957;51.608;6.916;2023-04-15T05:56:14;12.63;;;11.43;;
15712;SDS011;7957;51.608;6.916;2023-04-15T05:58:41;12.57;;;11.37;;
15712;SDS011;7957;51.608;6.916;2023-04-15T06:01:10;12.73;;;11.43;;
15712;SDS011;7957;51.608;6.916;2023-04-15T06:03:37;11.97;;;10.87;;
15712;SDS011;7957;51.608;6.916;2023-04-15T06:06:04;12.80;;;11.43;;
15712;SDS011;7957;51.608;6.916;2023-04-15T06:08:31;11.97;;;10.97;;
15712;SDS011;7957;51.608;6.916;2023-04-15T06:10:58;13.27;;;12.00;;
15712;SDS011;7957;51.608;6.916;2023-04-15T06:13:25;12.67;;;11.57;;
15712;SDS011;7957;51.608;6.916;2023-04-15T06:15:52;13.23;;;11.93;;
15712;SDS011;7957;51.608;6.916;2023-04-15T06:18:22;12.10;;;11.10;;
15712;SDS011;7957;51.608;6.916;2023-04-15T06:20:48;13.63;;;12.43;;
15712;SDS011;7957;51.608;6.916;2023-04-15T06:23:16;13.60;;;12.30;;
15712;SDS011;7957;51.608;6.916;2023-04-15T06:25:43;13.37;;;12.27;;
15712;SDS011;7957;51.608;6.916;2023-04-15T06:28:10;13.67;;;12.47;;
15712;SDS011;7957;51.608;6.916;2023-04-15T06:30:37;13.37;;;12.07;;
15712;SDS011;7957;51.608;6.916;2023-04-15T06:33:04;14.03;;;12.73;;
15712;SDS011;7957;51.608;6.916;2023-04-15T06:35:33;13.90;;;12.47;;
15712;SDS011;7957;51.608;6.916;2023-04-15T06:38:00;13.40;;;12.20;;
15712;SDS011;7957;51.608;6.916;2023-04-15T06:40:27;13.07;;;11.97;;
15712;SDS011;7957;51.608;6.916;2023-04-15T06:42:54;14.53;;;13.23;;
15712;SDS011;7957;51.608;6.916;2023-04-15T06:45:21;13.40;;;12.20;;
15712;SDS011;7957;51.608;6.916;2023-04-15T06:47:48;14.20;;;12.90;;
15712;SDS011;7957;51.608;6.916;2023-04-15T06:50:15;14.00;;;12.87;;
15712;SDS011;7957;51.608;6.916;2023-04-15T06:52:44;14.13;;;12.83;;
15712;SDS011;7957;51.608;6.916;2023-04-15T06:55:11;13.87;;;12.43;;
15712;SDS011;7957;51.608;6.916;2023-04-15T06:57:38;12.77;;;11.70;;
15712;SDS011;7957;51.608;6.916;2023-04-15T07:00:06;13.83;;;11.83;;
15712;SDS011;7957;51.608;6.916;2023-04-15T07:02:35;13.50;;;12.30;;
15712;SDS011;7957;51.608;6.916;2023-04-15T07:05:02;12.67;;;11.57;;
15712;SDS011;7957;51.608;6.916;2023-04-15T07:07:31;12.73;;;11.63;;
15712;SDS011;7957;51.608;6.916;2023-04-15T07:10:00;13.03;;;11.83;;
15712;SDS011;7957;51.608;6.916;2023-04-15T07:12:27;13.10;;;11.93;;
15712;SDS011;7957;51.608;6.916;2023-04-15T07:14:55;13.63;;;12.33;;
15712;SDS011;7957;51.608;6.916;2023-04-15T07:17:22;12.50;;;11.40;;
15712;SDS011;7957;51.608;6.916;2023-04-15T07:19:49;12.13;;;11.10;;
15712;SDS011;7957;51.608;6.916;2023-04-15T07:22:16;12.60;;;11.40;;
15712;SDS011;7957;51.608;6.916;2023-04-15T07:24:43;13.03;;;11.83;;
15712;SDS011;7957;51.608;6.916;2023-04-15T07:27:11;11.90;;;10.80;;
15712;SDS011;7957;51.608;6.916;2023-04-15T07:29:38;12.80;;;11.70;;
15712;SDS011;7957;51.608;6.916;2023-04-15T07:32:05;11.90;;;10.80;;
15712;SDS011;7957;51.608;6.916;2023-04-15T07:34:34;10.93;;;9.93;;
15712;SDS011;7957;51.608;6.916;2023-04-15T07:37:01;11.50;;;10.40;;
15712;SDS011;7957;51.608;6.916;2023-04-15T07:39:28;12.13;;;11.03;;
15712;SDS011;7957;51.608;6.916;2023-04-15T07:41:56;12.17;;;11.07;;
15712;SDS011;7957;51.608;6.916;2023-04-15T07:44:25;11.23;;;10.23;;
15712;SDS011;7957;51.608;6.916;2023-04-15T07:46:52;11.50;;;10.50;;
15712;SDS011;7957;51.608;6.916;2023-04-15T07:49:19;11.00;;;10.10;;
15712;SDS011;7957;51.608;6.916;2023-04-15T07:51:46;11.70;;;10.60;;
15712;SDS011;7957;51.608;6.916;2023-04-15T07:54:14;11.20;;;10.20;;
15712;SDS011;7957;51.608;6.916;2023-04-15T07:56:41;11.57;;;10.57;;
15712;SDS011;7957;51.608;6.916;2023-04-15T07:59:07;10.67;;;9.77;;
15712;SDS011;7957;51.608;6.916;2023-04-15T08:01:37;9.63;;;8.80;;
15712;SDS011;7957;51.608;6.916;2023-04-15T08:04:04;25.35;;;9.68;;
15712;SDS011;7957;51.608;6.916;2023-04-15T08:06:31;26.70;;;10.05;;
15712;SDS011;7957;51.608;6.916;2023-04-15T08:08:58;17.77;;;8.80;;
15712;SDS011;7957;51.608;6.916;2023-04-15T08:11:25;18.70;;;8.83;;
15712;SDS011;7957;51.608;6.916;2023-04-15T08:13:52;19.83;;;9.43;;
15712;SDS011;7957;51.608;6.916;2023-04-15T08:16:20;24.73;;;9.13;;
15712;SDS011;7957;51.608;6.916;2023-04-15T08:18:50;14.47;;;8.73;;
15712;SDS011;7957;51.608;6.916;2023-04-15T08:21:18;13.07;;;9.00;;
15712;SDS011;7957;51.608;6.916;2023-04-15T08:23:46;17.23;;;8.90;;
15712;SDS011;7957;51.608;6.916;2023-04-15T08:26:14;16.43;;;8.27;;
15712;SDS011;7957;51.608;6.916;2023-04-15T08:28:42;28.03;;;7.97;;
15712;SDS011;7957;51.608;6.916;2023-04-15T08:31:10;17.43;;;7.87;;
15712;SDS011;7957;51.608;6.916;2023-04-15T08:33:37;7.60;;;6.90;;
15712;SDS011;7957;51.608;6.916;2023-04-15T08:36:06;18.80;;;7.53;;
15712;SDS011;7957;51.608;6.916;2023-04-15T08:38:33;41.50;;;7.73;;
15712;SDS011;7957;51.608;6.916;2023-04-15T08:41:01;19.02;;;9.00;;
15712;SDS011;7957;51.608;6.916;2023-04-15T08:43:32;6.90;;;6.20;;
15712;SDS011;7957;51.608;6.916;2023-04-15T08:46:01;6.33;;;5.73;;
15712;SDS011;7957;51.608;6.916;2023-04-15T08:48:31;7.00;;;5.90;;
15712;SDS011;7957;51.608;6.916;2023-04-15T08:50:58;9.40;;;6.70;;
15712;SDS011;7957;51.608;6.916;2023-04-15T08:53:28;8.87;;;6.87;;
15712;SDS011;7957;51.608;6.916;2023-04-15T08:55:56;10.03;;;6.33;;
15712;SDS011;7957;51.608;6.916;2023-04-15T08:58:28;6.97;;;6.07;;
15712;SDS011;7957;51.608;6.916;2023-04-15T09:00:56;7.57;;;6.67;;
15712;SDS011;7957;51.608;6.916;2023-04-15T09:03:22;7.90;;;7.07;;
15712;SDS011;7957;51.608;6.916;2023-04-15T09:05:50;6.97;;;6.33;;
15712;SDS011;7957;51.608;6.916;2023-04-15T09:08:17;7.53;;;6.83;;
15712;SDS011;7957;51.608;6.916;2023-04-15T09:10:46;6.60;;;6.00;;
15712;SDS011;7957;51.608;6.916;2023-04-15T09:13:13;6.97;;;6.40;;
15712;SDS011;7957;51.608;6.916;2023-04-15T09:15:40;9.53;;;6.53;;
15712;SDS011;7957;51.608;6.916;2023-04-15T09:18:07;14.70;;;6.83;;
15712;SDS011;7957;51.608;6.916;2023-04-15T09:20:37;14.40;;;7.67;;
15712;SDS011;7957;51.608;6.916;2023-04-15T09:23:10;10.13;;;7.00;;
15712;SDS011;7957;51.608;6.916;2023-04-15T09:25:38;8.00;;;7.20;;
15712;SDS011;7957;51.608;6.916;2023-04-15T09:28:08;9.70;;;7.23;;
15712;SDS011;7957;51.608;6.916;2023-04-15T09:30:35;7.30;;;6.60;;
15712;SDS011;7957;51.608;6.916;2023-04-15T09:33:02;9.47;;;6.80;;
15712;SDS011;7957;51.608;6.916;2023-04-15T09:35:32;7.10;;;6.50;;
15712;SDS011;7957;51.608;6.916;2023-04-15T09:38:03;8.03;;;7.03;;
15712;SDS011;7957;51.608;6.916;2023-04-15T09:40:34;7.90;;;7.20;;
15712;SDS011;7957;51.608;6.916;2023-04-15T09:43:02;7.43;;;6.73;;
15712;SDS011;7957;51.608;6.916;2023-04-15T09:45:32;7.67;;;7.07;;
15712;SDS011;7957;51.608;6.916;2023-04-15T09:48:13;8.23;;;6.73;;
15712;SDS011;7957;51.608;6.916;2023-04-15T09:50:41;11.53;;;7.23;;
15712;SDS011;7957;51.608;6.916;2023-04-15T09:53:08;8.83;;;6.93;;
15712;SDS011;7957;51.608;6.916;2023-04-15T09:55:36;7.63;;;6.70;;
15712;SDS011;7957;51.608;6.916;2023-04-15T09:58:07;7.10;;;6.50;;
15712;SDS011;7957;51.608;6.916;2023-04-15T10:00:36;6.50;;;6.00;;
15712;SDS011;7957;51.608;6.916;2023-04-15T10:03:04;6.43;;;5.83;;
15712;SDS011;7957;51.608;6.916;2023-04-15T10:05:31;6.30;;;5.50;;
15712;SDS011;7957;51.608;6.916;2023-04-15T10:07:59;5.67;;;5.20;;
15712;SDS011;7957;51.608;6.916;2023-04-15T10:10:28;15.97;;;6.00;;
15712;SDS011;7957;51.608;6.916;2023-04-15T10:12:57;6.90;;;6.07;;
15712;SDS011;7957;51.608;6.916;2023-04-15T10:15:25;14.55;;;6.90;;
15712;SDS011;7957;51.608;6.916;2023-04-15T10:17:56;10.97;;;6.07;;
15712;SDS011;7957;51.608;6.916;2023-04-15T10:20:26;10.07;;;6.03;;
15712;SDS011;7957;51.608;6.916;2023-04-15T10:22:54;7.80;;;5.60;;
15712;SDS011;7957;51.608;6.916;2023-04-15T10:25:22;6.00;;;5.40;;
15712;SDS011;7957;51.608;6.916;2023-04-15T10:27:51;6.33;;;5.57;;
15712;SDS011;7957;51.608;6.916;2023-04-15T10:30:19;11.33;;;5.73;;
15712;SDS011;7957;51.608;6.916;2023-04-15T10:32:46;9.27;;;5.60;;
15712;SDS011;7957;51.608;6.916;2023-04-15T10:35:16;6.00;;;5.40;;
15712;SDS011;7957;51.608;6.916;2023-04-15T10:37:44;9.80;;;5.73;;
15712;SDS011;7957;51.608;6.916;2023-04-15T10:40:24;6.90;;;5.40;;
15712;SDS011;7957;51.608;6.916;2023-04-15T10:42:52;5.87;;;5.37;;
15712;SDS011;7957;51.608;6.916;2023-04-15T10:45:21;6.00;;;5.47;;
15712;SDS011;7957;51.608;6.916;2023-04-15T10:47:53;7.77;;;5.50;;
15712;SDS011;7957;51.608;6.916;2023-04-15T10:50:22;5.93;;;5.43;;
15712;SDS011;7957;51.608;6.916;2023-04-15T10:52:51;6.87;;;5.30;;
15712;SDS011;7957;51.608;6.916;2023-04-15T10:55:19;5.77;;;5.17;;
15712;SDS011;7957;51.608;6.916;2023-04-15T10:57:50;6.43;;;5.17;;
15712;SDS011;7957;51.608;6.916;2023-04-15T11:00:19;5.43;;;4.57;;
15712;SDS011;7957;51.608;6.916;2023-04-15T11:02:47;5.53;;;5.03;;
15712;SDS011;7957;51.608;6.916;2023-04-15T11:05:17;5.70;;;5.20;;
15712;SDS011;7957;51.608;6.916;2023-04-15T11:07:48;5.80;;;4.80;;
15712;SDS011;7957;51.608;6.916;2023-04-15T11:13:19;5.00;;;4.60;;
15712;SDS011;7957;51.608;6.916;2023-04-15T11:15:47;6.00;;;5.50;;
15712;SDS011;7957;51.608;6.916;2023-04-15T11:18:16;6.77;;;5.20;;
15712;SDS011;7957;51.608;6.916;2023-04-15T11:20:44;5.20;;;4.77;;
15712;SDS011;7957;51.608;6.916;2023-04-15T11:23:13;5.93;;;5.33;;
15712;SDS011;7957;51.608;6.916;2023-04-15T11:25:41;5.30;;;4.90;;
15712;SDS011;7957;51.608;6.916;2023-04-15T11:28:10;5.60;;;5.20;;
15712;SDS011;7957;51.608;6.916;2023-04-15T11:30:38;5.53;;;5.07;;
15712;SDS011;7957;51.608;6.916;2023-04-15T11:33:06;5.60;;;5.10;;
15712;SDS011;7957;51.608;6.916;2023-04-15T11:35:34;7.13;;;5.80;;
15712;SDS011;7957;51.608;6.916;2023-04-15T11:38:02;5.37;;;4.97;;
15712;SDS011;7957;51.608;6.916;2023-04-15T11:40:32;6.30;;;5.00;;
15712;SDS011;7957;51.608;6.916;2023-04-15T11:43:03;5.50;;;5.00;;
15712;SDS011;7957;51.608;6.916;2023-04-15T11:45:31;5.83;;;5.37;;
15712;SDS011;7957;51.608;6.916;2023-04-15T11:48:05;5.60;;;4.90;;
15712;SDS011;7957;51.608;6.916;2023-04-15T11:50:33;5.70;;;5.30;;
15712;SDS011;7957;51.608;6.916;2023-04-15T11:53:01;6.00;;;5.47;;
15712;SDS011;7957;51.608;6.916;2023-04-15T11:55:30;5.00;;;4.60;;
15712;SDS011;7957;51.608;6.916;2023-04-15T11:58:10;6.03;;;5.50;;
15712;SDS011;7957;51.608;6.916;2023-04-15T12:00:39;5.13;;;4.73;;
15712;SDS011;7957;51.608;6.916;2023-04-15T12:03:18;4.97;;;4.40;;
15712;SDS011;7957;51.608;6.916;2023-04-15T12:08:54;5.37;;;4.87;;
15712;SDS011;7957;51.608;6.916;2023-04-15T12:11:31;4.60;;;4.20;;
15712;SDS011;7957;51.608;6.916;2023-04-15T12:14:02;4.87;;;4.47;;
15712;SDS011;7957;51.608;6.916;2023-04-15T12:16:31;5.03;;;4.60;;
15712;SDS011;7957;51.608;6.916;2023-04-15T12:18:59;4.90;;;4.40;;
15712;SDS011;7957;51.608;6.916;2023-04-15T12:21:35;5.10;;;4.60;;
15712;SDS011;7957;51.608;6.916;2023-04-15T12:24:04;6.23;;;4.80;;
15712;SDS011;7957;51.608;6.916;2023-04-15T12:26:34;4.80;;;4.47;;
15712;SDS011;7957;51.608;6.916;2023-04-15T12:29:03;5.23;;;4.77;;
15712;SDS011;7957;51.608;6.916;2023-04-15T12:31:33;5.47;;;4.97;;
15712;SDS011;7957;51.608;6.916;2023-04-15T12:34:01;4.77;;;4.37;;
15712;SDS011;7957;51.608;6.916;2023-04-15T12:36:29;5.17;;;4.67;;
15712;SDS011;7957;51.608;6.916;2023-04-15T12:39:00;4.80;;;4.40;;
15712;SDS011;7957;51.608;6.916;2023-04-15T12:41:28;4.90;;;4.40;;
15712;SDS011;7957;51.608;6.916;2023-04-15T12:43:56;5.00;;;4.40;;
15712;SDS011;7957;51.608;6.916;2023-04-15T12:46:24;5.23;;;4.73;;
15712;SDS011;7957;51.608;6.916;2023-04-15T12:48:51;5.47;;;4.97;;
15712;SDS011;7957;51.608;6.916;2023-04-15T12:51:18;5.07;;;4.53;;
15712;SDS011;7957;51.608;6.916;2023-04-15T12:53:46;5.13;;;4.63;;
15712;SDS011;7957;51.608;6.916;2023-04-15T12:56:13;4.43;;;4.03;;
15712;SDS011;7957;51.608;6.916;2023-04-15T12:58:40;4.47;;;4.03;;
15712;SDS011;7957;51.608;6.916;2023-04-15T13:01:09;6.10;;;4.07;;
15712;SDS011;7957;51.608;6.916;2023-04-15T13:03:36;4.80;;;4.40;;
15712;SDS011;7957;51.608;6.916;2023-04-15T13:06:03;4.60;;;4.20;;
15712;SDS011;7957;51.608;6.916;2023-04-15T13:08:30;4.20;;;3.80;;
15712;SDS011;7957;51.608;6.916;2023-04-15T13:10:58;15.43;;;4.70;;
15712;SDS011;7957;51.608;6.916;2023-04-15T13:13:25;34.53;;;7.17;;
15712;SDS011;7957;51.608;6.916;2023-04-15T13:15:52;38.00;;;8.57;;
15712;SDS011;7957;51.608;6.916;2023-04-15T13:18:21;34.80;;;8.13;;
15712;SDS011;7957;51.608;6.916;2023-04-15T13:20:48;22.80;;;7.40;;
15712;SDS011;7957;51.608;6.916;2023-04-15T13:23:15;37.30;;;7.13;;
15712;SDS011;7957;51.608;6.916;2023-04-15T13:25:42;30.43;;;7.27;;
15712;SDS011;7957;51.608;6.916;2023-04-15T13:28:09;22.03;;;7.53;;
15712;SDS011;7957;51.608;6.916;2023-04-15T13:30:37;20.63;;;6.83;;
15712;SDS011;7957;51.608;6.916;2023-04-15T13:33:04;11.70;;;5.77;;
15712;SDS011;7957;51.608;6.916;2023-04-15T13:35:33;16.03;;;5.30;;
15712;SDS011;7957;51.608;6.916;2023-04-15T13:38:00;16.00;;;5.90;;
15712;SDS011;7957;51.608;6.916;2023-04-15T13:40:27;14.33;;;5.40;;
15712;SDS011;7957;51.608;6.916;2023-04-15T13:42:54;10.57;;;4.70;;
15712;SDS011;7957;51.608;6.916;2023-04-15T13:45:22;10.13;;;4.53;;
15712;SDS011;7957;51.608;6.916;2023-04-15T13:47:49;6.57;;;4.40;;
15712;SDS011;7957;51.608;6.916;2023-04-15T13:50:16;5.57;;;4.20;;
15712;SDS011;7957;51.608;6.916;2023-04-15T13:52:45;4.93;;;3.90;;
15712;SDS011;7957;51.608;6.916;2023-04-15T13:55:12;7.93;;;4.40;;
15712;SDS011;7957;51.608;6.916;2023-04-15T13:57:39;6.90;;;4.23;;
15712;SDS011;7957;51.608;6.916;2023-04-15T14:00:07;8.37;;;4.40;;
15712;SDS011;7957;51.608;6.916;2023-04-15T14:02:35;7.83;;;4.17;;
15712;SDS011;7957;51.608;6.916;2023-04-15T14:05:02;5.93;;;3.50;;
15712;SDS011;7957;51.608;6.916;2023-04-15T14:07:29;4.70;;;4.00;;
15712;SDS011;7957;51.608;6.916;2023-04-15T14:09:58;5.93;;;3.47;;
15712;SDS011;7957;51.608;6.916;2023-04-15T14:12:25;4.87;;;4.10;;
15712;SDS011;7957;51.608;6.916;2023-04-15T14:14:52;4.70;;;3.70;;
15712;SDS011;7957;51.608;6.916;2023-04-15T14:17:19;4.03;;;3.60;;
15712;SDS011;7957;51.608;6.916;2023-04-15T14:19:46;3.80;;;3.40;;
15712;SDS011;7957;51.608;6.916;2023-04-15T14:22:12;4.63;;;3.80;;
15712;SDS011;7957;51.608;6.916;2023-04-15T14:24:39;4.37;;;3.40;;
15712;SDS011;7957;51.608;6.916;2023-04-15T14:27:08;4.80;;;3.37;;
15712;SDS011;7957;51.608;6.916;2023-04-15T14:29:36;6.30;;;3.80;;
15712;SDS011;7957;51.608;6.916;2023-04-15T14:32:03;4.50;;;3.67;;
15712;SDS011;7957;51.608;6.916;2023-04-15T14:34:30;4.07;;;3.40;;
15712;SDS011;7957;51.608;6.916;2023-04-15T14:36:57;4.53;;;3.03;;
15712;SDS011;7957;51.608;6.916;2023-04-15T14:39:30;4.40;;;3.20;;
15712;SDS011;7957;51.608;6.916;2023-04-15T14:41:57;5.63;;;3.53;;
15712;SDS011;7957;51.608;6.916;2023-04-15T14:44:25;3.30;;;3.00;;
15712;SDS011;7957;51.608;6.916;2023-04-15T14:46:52;5.00;;;3.13;;
15712;SDS011;7957;51.608;6.916;2023-04-15T14:49:19;5.00;;;3.50;;
15712;SDS011;7957;51.608;6.916;2023-04-15T14:51:47;3.20;;;2.80;;
15712;SDS011;7957;51.608;6.916;2023-04-15T14:54:14;4.40;;;3.43;;
15712;SDS011;7957;51.608;6.916;2023-04-15T14:56:41;4.80;;;3.27;;
15712;SDS011;7957;51.608;6.916;2023-04-15T14:59:08;3.63;;;2.97;;
15712;SDS011;7957;51.608;6.916;2023-04-15T15:01:36;3.80;;;3.10;;
15712;SDS011;7957;51.608;6.916;2023-04-15T15:04:03;3.87;;;3.30;;